메인 페이지
METAR-TAF:

METAR-TAF

공항 :

오클라호마시티, 오클라호마, 미국

위도: 35-23-19N, 경도: 097-36-01W, 고도: 394m

현재 날씨관측

예보는 1 시간 0분 전, 05:52시(UTC)에 발표되었습니다.
남남동7kt
온도 21°C
습도 83%
기압 1014 hPa
시정: 16.1km
고도 20000ft 상공 구름 조금
고도 22000ft 상공 구름 보통

METAR: KOKC 210552Z 16007KT 10SM FEW200 SCT220 21/18 A2994 RMK AO2 SLP121 T02110178 10294 20211 403170211 55001

시각: 01:52 (06:52 UTC)

예보

예보는 1 시간 32분 전, 05:20시(UTC)에 발표되었습니다.
예보 대상 시간: 21일 06시부터 22일 06시까지 (UTC)
남남동13kt
시정: 10km
고도 5000ft 상공 구름 보통
고도 25000ft 상공 구름 많음
일시적
21일 10시부터 21일 14시까지 (UTC)
시정: 9.7km
고도 4000ft 상공 구름 많음, 적란운.
고도 10000ft 상공 흐림
뇌우, 약한비
21일 1400시부터 (UTC)
10kt
시정: 9.7km
고도 2500ft 상공 흐림, 적란운.
소나기, 시계 내 뇌우
21일 2000시부터 (UTC)
북북동18kt, 순간 최대 풍속 25kt
시정: 4.8km
고도 1500ft 상공 흐림, 적란운.
강한소나기, 시계 내 뇌우

TAF: KOKC 210520Z 2106/2206 16013KT P6SM SCT050 BKN250 TEMPO 2110/2114 6SM -TSRA BKN040CB OVC100 FM211400 10010KT 6SM SHRA VCTS OVC025CB FM212000 03018G25KT 3SM +SHRA VCTS OVC015CB

4,000개 이상의 공항 관측 자료 및 예보 (METAR 및 TAF 보고).

지도상에서 검색 가능한 기상관측소가 노란 점과 빨간 점으로 표시되어 있습니다.

기상관측소 명을 보려면 표시 위로 마우스를 이동하세요.

날씨 관측과 예보를 보려면 클릭하세요.

지도 변경 : 확대하려면 엑스 표시가 있는 녹색 버튼, 축소하려면 빼기 표시가 있는 녹색 버튼, 다음 페이지의 지도를 보려면 녹색 화살표를 클릭하세요.


METAR-TAF: